AGGH/HIR METAR and TAF weather

Enter ICAO airport designator
Station Type Date Time Source
AGGH METAR 2022/06/28 16:00 UTC NOAA

AGGH 281600Z 00000KT 9999 FEW014 22/22 Q1008


Station Type Date Time Source
AGGH Decoded METAR 2022/06/28 16:00 UTC NOAA

Honiara / Henderson, Solomon Islands (AGGH) 09-25S 160-03E 9M
Jun 28, 2022 - 12:00 PM EDT / 2022.06.28 1600 UTC
Wind: Calm:0
Visibility: greater than 7 mile(s):0
Sky conditions: mostly clear
Temperature: 71 F (22 C)
Dew Point: 71 F (22 C)
Relative Humidity: 100%
Pressure (altimeter): 29.77 in. Hg (1008 hPa)
ob: AGGH 281600Z 00000KT 9999 FEW014 22/22 Q1008
cycle: 16

Station Type Date Time Source
AGGH TAF 2022/06/28 12:21 UTC NOAA

TAF TAF AGGH 281112Z 2812/2912 09010KT 9999 FEW015 T 25 24 23 25 Q 1011 1009 1008 1010

Example: see airport list